Time;durP1;ratioP1;P1;durP2;ratioP2;P2;SDS_P1;SDS_P2;PMS_P1;PMS_P2;Temp;Humidity;BMP_temperature;BMP_pressure;BME280_temperature;BME280_humidity;BME280_pressure;Samples;Min_cycle;Max_cycle;Signal;HPM_P1;HPM_P2
2023/06/19 00:01:59;;;;;;;2.40;1.70;;;;;;;;;;5048362;28;20071;-72
2023/06/19 00:04:26;;;;;;;2.70;1.65;;;;;;;;;;5050464;28;20025;-72
2023/06/19 00:06:52;;;;;;;2.90;1.95;;;;;;;;;;5052145;28;20105;-72
2023/06/19 00:09:18;;;;;;;3.22;1.95;;;;;;;;;;5052204;28;20036;-72
2023/06/19 00:11:43;;;;;;;3.88;1.80;;;;;;;;;;5052410;28;20025;-73
2023/06/19 00:14:09;;;;;;;4.22;2.05;;;;;;;;;;5051171;28;20473;-73
2023/06/19 00:16:34;;;;;;;5.35;2.28;;;;;;;;;;5052166;28;20507;-72
2023/06/19 00:19:00;;;;;;;3.83;1.67;;;;;;;;;;5052165;28;20020;-73
2023/06/19 00:21:25;;;;;;;2.78;1.70;;;;;;;;;;5052143;28;20056;-72
2023/06/19 00:23:52;;;;;;;2.50;1.73;;;;;;;;;;5052115;28;20100;-72
2023/06/19 00:26:18;;;;;;;3.97;1.60;;;;;;;;;;5051738;28;20032;-72
2023/06/19 00:28:45;;;;;;;3.50;1.67;;;;;;;;;;5052182;28;20040;-73
2023/06/19 00:31:13;;;;;;;6.47;1.80;;;;;;;;;;5051772;28;20102;-71
2023/06/19 00:33:39;;;;;;;3.30;1.67;;;;;;;;;;5052119;28;20128;-72
2023/06/19 00:36:12;;;;;;;4.10;1.75;;;;;;;;;;5051850;28;20033;-72
2023/06/19 00:38:38;;;;;;;1.98;1.55;;;;;;;;;;5051874;28;20025;-71
2023/06/19 00:41:05;;;;;;;4.43;2.20;;;;;;;;;;5051719;28;20033;-71
2023/06/19 00:43:30;;;;;;;2.63;1.60;;;;;;;;;;5050648;28;20075;-72
2023/06/19 00:45:58;;;;;;;3.17;1.92;;;;;;;;;;5051764;28;20021;-72
2023/06/19 00:48:25;;;;;;;3.25;1.90;;;;;;;;;;5051969;28;20025;-72
2023/06/19 00:50:51;;;;;;;2.17;1.50;;;;;;;;;;5050661;28;20055;-72
2023/06/19 00:53:18;;;;;;;2.50;1.52;;;;;;;;;;5031529;28;20069;-72
2023/06/19 00:55:46;;;;;;;3.97;1.92;;;;;;;;;;5031546;28;20027;-72
2023/06/19 00:58:11;;;;;;;4.97;2.25;;;;;;;;;;5031734;28;20025;-72
2023/06/19 01:00:37;;;;;;;2.35;1.73;;;;;;;;;;5031417;28;20080;-72
2023/06/19 01:03:03;;;;;;;3.42;1.67;;;;;;;;;;5047045;28;20030;-71
2023/06/19 01:05:29;;;;;;;2.58;1.50;;;;;;;;;;5031663;28;20477;-72
2023/06/19 01:08:14;;;;;;;4.80;1.98;;;;;;;;;;5031461;28;20048;-72
2023/06/19 01:10:53;;;;;;;3.33;2.25;;;;;;;;;;5031306;28;20029;-72
2023/06/19 01:13:29;;;;;;;1.85;1.38;;;;;;;;;;5031416;28;20489;-71
2023/06/19 01:15:55;;;;;;;3.90;2.13;;;;;;;;;;5030953;28;20030;-72
2023/06/19 01:18:21;;;;;;;3.65;1.55;;;;;;;;;;5031632;28;20025;-71
2023/06/19 01:20:49;;;;;;;4.50;1.88;;;;;;;;;;5031198;28;20021;-71
2023/06/19 01:23:14;;;;;;;3.45;2.00;;;;;;;;;;5031209;28;20092;-72
2023/06/19 01:25:40;;;;;;;3.30;2.00;;;;;;;;;;5031270;28;20671;-71
2023/06/19 01:28:10;;;;;;;9.07;2.20;;;;;;;;;;5030947;28;20025;-72
2023/06/19 01:30:37;;;;;;;2.05;1.48;;;;;;;;;;5030799;28;20045;-71
2023/06/19 01:33:11;;;;;;;2.63;1.80;;;;;;;;;;5030795;28;20047;-72
2023/06/19 01:35:39;;;;;;;2.50;1.60;;;;;;;;;;5030747;28;20088;-71
2023/06/19 01:38:06;;;;;;;6.63;2.15;;;;;;;;;;5030659;28;20401;-71
2023/06/19 01:40:32;;;;;;;3.60;2.20;;;;;;;;;;5030609;28;20025;-71
2023/06/19 01:43:01;;;;;;;2.65;1.90;;;;;;;;;;5045637;28;20022;-71
2023/06/19 01:45:28;;;;;;;6.15;2.30;;;;;;;;;;5030589;28;20018;-73
2023/06/19 01:47:54;;;;;;;2.80;1.50;;;;;;;;;;5030247;28;20057;-73
2023/06/19 01:50:21;;;;;;;2.33;1.60;;;;;;;;;;5030276;28;20052;-71
2023/06/19 01:52:47;;;;;;;3.33;1.35;;;;;;;;;;5029870;28;20562;-72
2023/06/19 01:55:13;;;;;;;3.40;2.15;;;;;;;;;;5030865;28;20104;-71
2023/06/19 01:57:39;;;;;;;2.90;1.77;;;;;;;;;;5030399;28;20033;-71
2023/06/19 02:00:07;;;;;;;3.35;1.75;;;;;;;;;;5029795;28;20109;-71
2023/06/19 02:02:33;;;;;;;9.48;2.25;;;;;;;;;;5029972;28;20034;-72
2023/06/19 02:04:58;;;;;;;2.63;1.80;;;;;;;;;;5030196;28;20033;-71
2023/06/19 02:07:24;;;;;;;2.00;1.48;;;;;;;;;;5029760;28;20032;-72
2023/06/19 02:09:49;;;;;;;2.60;2.00;;;;;;;;;;5030020;28;20421;-72
2023/06/19 02:12:15;;;;;;;1.88;1.27;;;;;;;;;;5030051;28;20465;-72
2023/06/19 02:14:40;;;;;;;2.70;2.05;;;;;;;;;;5030187;28;20120;-72
2023/06/19 02:17:06;;;;;;;2.38;1.80;;;;;;;;;;5031565;28;20413;-71
2023/06/19 02:19:31;;;;;;;2.45;1.55;;;;;;;;;;5049772;28;20655;-71
2023/06/19 02:21:56;;;;;;;2.63;1.83;;;;;;;;;;5049362;28;20025;-75
2023/06/19 02:24:22;;;;;;;2.30;1.55;;;;;;;;;;5048353;28;20040;-74
2023/06/19 02:26:47;;;;;;;3.00;1.83;;;;;;;;;;5048712;28;20520;-71
2023/06/19 02:29:13;;;;;;;3.45;1.90;;;;;;;;;;5049803;28;20571;-72
2023/06/19 02:31:39;;;;;;;3.47;2.08;;;;;;;;;;5049643;28;20033;-75
2023/06/19 02:34:04;;;;;;;2.22;1.50;;;;;;;;;;5049544;28;20496;-71
2023/06/19 02:36:30;;;;;;;2.45;1.63;;;;;;;;;;5049373;28;20104;-73
2023/06/19 02:38:55;;;;;;;2.30;1.67;;;;;;;;;;5049261;28;20036;-75
2023/06/19 02:41:21;;;;;;;5.22;1.58;;;;;;;;;;5049159;28;20377;-73
2023/06/19 02:43:47;;;;;;;2.40;1.60;;;;;;;;;;5049363;28;20025;-74
2023/06/19 02:46:12;;;;;;;3.10;2.03;;;;;;;;;;5049150;28;20086;-73
2023/06/19 02:48:38;;;;;;;2.95;2.10;;;;;;;;;;5048264;28;20044;-73
2023/06/19 02:51:03;;;;;;;5.22;2.20;;;;;;;;;;5048081;28;20058;-74
2023/06/19 02:53:28;;;;;;;3.97;1.90;;;;;;;;;;5047662;28;20037;-73
2023/06/19 02:55:54;;;;;;;2.25;1.40;;;;;;;;;;5048140;28;20036;-71
2023/06/19 02:58:19;;;;;;;3.05;1.77;;;;;;;;;;5047309;28;20103;-71
2023/06/19 03:00:46;;;;;;;2.60;1.70;;;;;;;;;;5047600;28;20629;-72
2023/06/19 03:03:12;;;;;;;3.95;1.60;;;;;;;;;;5048855;28;20036;-73
2023/06/19 03:05:37;;;;;;;3.80;1.52;;;;;;;;;;5049350;28;20025;-73
2023/06/19 03:08:03;;;;;;;2.50;1.70;;;;;;;;;;5048806;28;20037;-71
2023/06/19 03:10:29;;;;;;;4.18;1.67;;;;;;;;;;5048828;28;20033;-73
2023/06/19 03:12:54;;;;;;;2.33;1.75;;;;;;;;;;5048927;28;20116;-72
2023/06/19 03:15:19;;;;;;;3.03;1.77;;;;;;;;;;5049065;28;20103;-71
2023/06/19 03:17:45;;;;;;;3.95;1.63;;;;;;;;;;5048724;28;20098;-72
2023/06/19 03:20:13;;;;;;;3.05;1.35;;;;;;;;;;5048978;28;20414;-77
2023/06/19 03:22:40;;;;;;;4.75;2.17;;;;;;;;;;5048752;28;20086;-72
2023/06/19 03:25:06;;;;;;;5.75;1.58;;;;;;;;;;5049109;28;20025;-70
2023/06/19 03:27:34;;;;;;;2.88;2.00;;;;;;;;;;5048768;28;20030;-72
2023/06/19 03:30:00;;;;;;;2.08;1.33;;;;;;;;;;5047509;28;20021;-72
2023/06/19 03:32:26;;;;;;;5.82;1.88;;;;;;;;;;5047092;28;20021;-76
2023/06/19 03:34:51;;;;;;;2.63;2.00;;;;;;;;;;5048885;28;20143;-75
2023/06/19 03:37:17;;;;;;;3.53;1.77;;;;;;;;;;5048241;28;20119;-76
2023/06/19 03:39:42;;;;;;;2.67;1.75;;;;;;;;;;5052891;28;20025;-73
2023/06/19 03:42:08;;;;;;;2.33;1.60;;;;;;;;;;5052533;28;20049;-71
2023/06/19 03:44:34;;;;;;;1.73;1.45;;;;;;;;;;5053054;28;20028;-71
2023/06/19 03:46:59;;;;;;;4.10;2.10;;;;;;;;;;5052559;28;20021;-71
2023/06/19 03:49:24;;;;;;;2.95;1.73;;;;;;;;;;5052539;28;20089;-71
2023/06/19 03:51:50;;;;;;;8.20;1.88;;;;;;;;;;5051965;28;20045;-71
2023/06/19 03:54:15;;;;;;;2.70;1.40;;;;;;;;;;5052314;28;20052;-71
2023/06/19 03:56:41;;;;;;;3.83;2.13;;;;;;;;;;5052555;28;20408;-70
2023/06/19 03:59:07;;;;;;;2.67;1.60;;;;;;;;;;5052424;28;20032;-71
2023/06/19 04:01:32;;;;;;;2.88;1.75;;;;;;;;;;5052415;28;20047;-71
2023/06/19 04:03:57;;;;;;;3.70;1.95;;;;;;;;;;5052236;28;20056;-71
2023/06/19 04:06:23;;;;;;;3.17;2.20;;;;;;;;;;5052319;28;20469;-71
2023/06/19 04:08:48;;;;;;;4.05;1.77;;;;;;;;;;5051758;28;20102;-71
2023/06/19 04:11:14;;;;;;;4.47;1.80;;;;;;;;;;5051988;28;20477;-70
2023/06/19 04:13:39;;;;;;;4.70;2.20;;;;;;;;;;5052007;28;20031;-71
2023/06/19 04:16:05;;;;;;;3.72;1.83;;;;;;;;;;5051830;28;20033;-71
2023/06/19 04:18:30;;;;;;;1.92;1.58;;;;;;;;;;5052104;28;20025;-71
2023/06/19 04:20:55;;;;;;;3.55;1.65;;;;;;;;;;5051872;28;20036;-70
2023/06/19 04:23:21;;;;;;;2.00;1.40;;;;;;;;;;5051723;28;20082;-71
2023/06/19 04:25:46;;;;;;;3.38;1.55;;;;;;;;;;5051939;28;20060;-70
2023/06/19 04:28:11;;;;;;;3.65;2.10;;;;;;;;;;5051489;28;20021;-71
2023/06/19 04:30:39;;;;;;;3.28;1.90;;;;;;;;;;5051701;28;20040;-71
2023/06/19 04:33:05;;;;;;;3.10;1.75;;;;;;;;;;5051450;28;20412;-71
2023/06/19 04:35:31;;;;;;;2.05;1.40;;;;;;;;;;5051920;28;20079;-71
2023/06/19 04:38:00;;;;;;;2.53;1.90;;;;;;;;;;5051636;28;20032;-71
2023/06/19 04:40:26;;;;;;;4.55;2.20;;;;;;;;;;5051660;28;20029;-71
2023/06/19 04:42:53;;;;;;;2.30;1.70;;;;;;;;;;5051456;28;20441;-71
2023/06/19 04:45:19;;;;;;;4.43;1.90;;;;;;;;;;5051562;28;20037;-71
2023/06/19 04:47:44;;;;;;;2.95;1.63;;;;;;;;;;5051288;28;20028;-71
2023/06/19 04:50:10;;;;;;;12.05;2.17;;;;;;;;;;5050734;28;20025;-71
2023/06/19 04:52:35;;;;;;;2.55;1.55;;;;;;;;;;5050922;28;20089;-74
2023/06/19 04:55:01;;;;;;;3.67;2.00;;;;;;;;;;5051432;28;20028;-73
2023/06/19 04:57:26;;;;;;;5.25;2.25;;;;;;;;;;5051465;28;20027;-73
2023/06/19 04:59:52;;;;;;;2.33;1.83;;;;;;;;;;5051344;28;20104;-74
2023/06/19 05:02:17;;;;;;;2.33;1.80;;;;;;;;;;5051369;28;20032;-75
2023/06/19 05:04:43;;;;;;;3.47;1.70;;;;;;;;;;5051183;28;20051;-73
2023/06/19 05:07:10;;;;;;;3.58;1.83;;;;;;;;;;5051100;28;20028;-76
2023/06/19 05:09:36;;;;;;;2.88;1.73;;;;;;;;;;5051142;28;20052;-73
2023/06/19 05:12:01;;;;;;;3.05;1.77;;;;;;;;;;5050967;28;20053;-71
2023/06/19 05:14:27;;;;;;;2.42;1.45;;;;;;;;;;5050793;28;20424;-70
2023/06/19 05:16:53;;;;;;;2.97;1.98;;;;;;;;;;5050958;28;20094;-71
2023/06/19 05:19:18;;;;;;;1.92;1.70;;;;;;;;;;5054245;28;20313;-73
2023/06/19 05:21:44;;;;;;;3.90;1.80;;;;;;;;;;5061360;28;20025;-73
2023/06/19 05:24:09;;;;;;;3.10;1.77;;;;;;;;;;5061880;28;20096;-73
2023/06/19 05:26:34;;;;;;;1.75;1.27;;;;;;;;;;5062476;28;20032;-73
2023/06/19 05:29:00;;;;;;;1.95;1.35;;;;;;;;;;5061958;28;20048;-73
2023/06/19 05:31:25;;;;;;;2.75;1.90;;;;;;;;;;5062082;28;20036;-75
2023/06/19 05:33:51;;;;;;;2.75;1.92;;;;;;;;;;5062223;28;20063;-76
2023/06/19 05:36:16;;;;;;;2.50;1.65;;;;;;;;;;5062016;28;20021;-72
2023/06/19 05:38:42;;;;;;;2.72;1.63;;;;;;;;;;5060529;28;20229;-78
2023/06/19 05:41:08;;;;;;;3.42;1.80;;;;;;;;;;5061529;28;20032;-72
2023/06/19 05:43:33;;;;;;;2.42;1.50;;;;;;;;;;5061342;28;20028;-71
2023/06/19 05:45:59;;;;;;;4.10;1.83;;;;;;;;;;5060289;28;20040;-70
2023/06/19 05:48:25;;;;;;;3.25;1.83;;;;;;;;;;5060727;28;20035;-70
2023/06/19 05:50:51;;;;;;;3.33;1.45;;;;;;;;;;5060931;28;20028;-71
2023/06/19 05:53:16;;;;;;;2.97;1.83;;;;;;;;;;5061153;28;20041;-72
2023/06/19 05:55:42;;;;;;;5.53;1.55;;;;;;;;;;5061962;28;20332;-73
2023/06/19 05:58:08;;;;;;;2.40;1.83;;;;;;;;;;5062190;28;20025;-75
2023/06/19 06:00:33;;;;;;;2.55;1.70;;;;;;;;;;5060541;28;20021;-74
2023/06/19 06:03:02;;;;;;;2.78;1.58;;;;;;;;;;5049064;28;20103;-87
2023/06/19 06:05:27;;;;;;;2.30;1.65;;;;;;;;;;5055567;28;20029;-72
2023/06/19 06:07:54;;;;;;;2.88;1.58;;;;;;;;;;5041329;28;20086;-73
2023/06/19 06:10:21;;;;;;;3.17;2.17;;;;;;;;;;5054004;28;20025;-73
2023/06/19 06:12:48;;;;;;;3.05;1.70;;;;;;;;;;5076488;28;20034;-74
2023/06/19 06:15:13;;;;;;;5.25;2.03;;;;;;;;;;5073243;28;20366;-74
2023/06/19 06:17:39;;;;;;;3.80;1.75;;;;;;;;;;5074380;28;20048;-73
2023/06/19 06:20:12;;;;;;;3.13;2.13;;;;;;;;;;5068918;28;20028;-73
2023/06/19 06:22:41;;;;;;;2.78;1.90;;;;;;;;;;5079960;28;20209;-71
2023/06/19 06:25:07;;;;;;;2.50;1.63;;;;;;;;;;5078991;28;20404;-70
2023/06/19 06:27:33;;;;;;;3.38;1.98;;;;;;;;;;5075540;28;20040;-70
2023/06/19 06:29:58;;;;;;;2.97;1.38;;;;;;;;;;5080479;28;20040;-70
2023/06/19 06:32:24;;;;;;;1.85;1.50;;;;;;;;;;5080432;28;20267;-70
2023/06/19 06:34:49;;;;;;;2.20;1.70;;;;;;;;;;5061440;28;20029;-71
2023/06/19 06:37:17;;;;;;;5.00;2.42;;;;;;;;;;5054824;28;20053;-71
2023/06/19 06:39:42;;;;;;;2.65;1.85;;;;;;;;;;5040240;28;20036;-72
2023/06/19 06:42:08;;;;;;;2.50;1.70;;;;;;;;;;5040810;28;20045;-72
2023/06/19 06:44:33;;;;;;;3.13;1.83;;;;;;;;;;5040374;28;20263;-71
2023/06/19 06:46:58;;;;;;;2.45;1.83;;;;;;;;;;5039616;28;20218;-71
2023/06/19 06:49:24;;;;;;;4.35;2.20;;;;;;;;;;5040358;28;20060;-71
2023/06/19 06:51:49;;;;;;;3.13;2.20;;;;;;;;;;5039303;28;20256;-70
2023/06/19 06:54:15;;;;;;;4.53;2.20;;;;;;;;;;5030480;28;20039;-70
2023/06/19 06:56:40;;;;;;;2.47;1.73;;;;;;;;;;5030049;28;20029;-71
2023/06/19 06:59:06;;;;;;;2.40;1.73;;;;;;;;;;5047804;28;20051;-71
2023/06/19 07:01:31;;;;;;;2.85;2.00;;;;;;;;;;5054063;28;20025;-72
2023/06/19 07:03:57;;;;;;;5.50;1.80;;;;;;;;;;5040464;28;20085;-71
2023/06/19 07:06:22;;;;;;;3.28;1.98;;;;;;;;;;5050942;28;20400;-71
2023/06/19 07:08:48;;;;;;;4.15;2.20;;;;;;;;;;5060528;28;20217;-71
2023/06/19 07:11:14;;;;;;;2.20;1.55;;;;;;;;;;5060408;28;20033;-72
2023/06/19 07:13:41;;;;;;;3.95;1.55;;;;;;;;;;5058064;28;20301;-75
2023/06/19 07:16:07;;;;;;;2.55;1.98;;;;;;;;;;5054414;28;20029;-78
2023/06/19 07:18:34;;;;;;;5.00;2.28;;;;;;;;;;5051637;28;20033;-74
2023/06/19 07:21:01;;;;;;;3.25;1.95;;;;;;;;;;5058525;28;20057;-75
2023/06/19 07:23:27;;;;;;;3.85;1.90;;;;;;;;;;5050352;28;20481;-71
2023/06/19 07:25:52;;;;;;;6.47;2.15;;;;;;;;;;5051562;28;20025;-71
2023/06/19 07:28:17;;;;;;;2.97;2.00;;;;;;;;;;5050546;28;20113;-71
2023/06/19 07:30:44;;;;;;;4.13;1.90;;;;;;;;;;5049363;28;20092;-71
2023/06/19 07:33:09;;;;;;;3.30;2.00;;;;;;;;;;5044748;28;20037;-71
2023/06/19 07:35:35;;;;;;;3.38;2.17;;;;;;;;;;5049920;28;20030;-71
2023/06/19 07:38:00;;;;;;;2.63;1.88;;;;;;;;;;5025446;28;20029;-72
2023/06/19 07:40:25;;;;;;;4.85;2.45;;;;;;;;;;5025737;28;20021;-76
2023/06/19 07:42:51;;;;;;;3.13;1.90;;;;;;;;;;5026493;28;20026;-71
2023/06/19 07:45:16;;;;;;;4.47;2.13;;;;;;;;;;5037389;28;20412;-72
2023/06/19 07:47:42;;;;;;;3.08;2.08;;;;;;;;;;5037482;28;20041;-73
2023/06/19 07:50:08;;;;;;;3.53;2.42;;;;;;;;;;5053183;28;20033;-72
2023/06/19 07:52:33;;;;;;;3.10;2.13;;;;;;;;;;5037419;28;20348;-71
2023/06/19 07:54:59;;;;;;;10.77;2.63;;;;;;;;;;5038767;28;20024;-72
2023/06/19 07:57:26;;;;;;;8.77;2.33;;;;;;;;;;5038615;28;20096;-71
2023/06/19 07:59:53;;;;;;;8.63;2.63;;;;;;;;;;5039177;28;20347;-72
2023/06/19 08:02:19;;;;;;;12.95;4.57;;;;;;;;;;5038549;28;20387;-75
2023/06/19 08:04:45;;;;;;;4.50;2.90;;;;;;;;;;5054220;28;20372;-71
2023/06/19 08:07:11;;;;;;;11.80;2.85;;;;;;;;;;5078668;28;20028;-71
2023/06/19 08:09:36;;;;;;;5.43;2.67;;;;;;;;;;5068495;28;20354;-72
2023/06/19 08:12:02;;;;;;;5.00;2.33;;;;;;;;;;5079257;28;20024;-71
2023/06/19 08:14:28;;;;;;;9.95;3.22;;;;;;;;;;5072266;28;20164;-71
2023/06/19 08:16:54;;;;;;;3.50;2.25;;;;;;;;;;5069330;28;20415;-74
2023/06/19 08:19:20;;;;;;;6.93;2.45;;;;;;;;;;5059724;28;20075;-71
2023/06/19 08:21:45;;;;;;;3.50;2.30;;;;;;;;;;5068354;28;20029;-71
2023/06/19 08:24:10;;;;;;;5.13;2.40;;;;;;;;;;5074562;28;20413;-71
2023/06/19 08:26:36;;;;;;;10.85;3.13;;;;;;;;;;5080481;28;20103;-71
2023/06/19 08:29:01;;;;;;;7.78;3.10;;;;;;;;;;5082351;28;20060;-71
2023/06/19 08:31:28;;;;;;;3.53;2.45;;;;;;;;;;5081737;28;20165;-71
2023/06/19 08:33:54;;;;;;;2.53;1.83;;;;;;;;;;5080618;28;20028;-71
2023/06/19 08:36:20;;;;;;;3.20;2.05;;;;;;;;;;5077942;28;20020;-70
2023/06/19 08:38:49;;;;;;;3.78;2.30;;;;;;;;;;5063554;28;20039;-70
2023/06/19 08:41:18;;;;;;;4.55;2.60;;;;;;;;;;5074591;28;20075;-71
2023/06/19 08:43:44;;;;;;;6.60;2.05;;;;;;;;;;5074053;28;20040;-71
2023/06/19 08:46:12;;;;;;;2.60;1.98;;;;;;;;;;5070378;28;20036;-71
2023/06/19 08:48:38;;;;;;;4.72;2.60;;;;;;;;;;5070477;28;20040;-70
2023/06/19 08:51:04;;;;;;;3.28;2.40;;;;;;;;;;5070307;28;20021;-71
2023/06/19 08:53:35;;;;;;;2.55;1.92;;;;;;;;;;5069802;28;20475;-71
2023/06/19 08:56:02;;;;;;;3.63;2.03;;;;;;;;;;5070171;28;20032;-70
2023/06/19 08:58:27;;;;;;;3.85;2.40;;;;;;;;;;5070567;28;20033;-72
2023/06/19 09:00:53;;;;;;;3.47;2.05;;;;;;;;;;5070206;28;20074;-70
2023/06/19 09:03:22;;;;;;;6.03;2.47;;;;;;;;;;5069523;28;20028;-71
2023/06/19 09:05:51;;;;;;;3.53;1.98;;;;;;;;;;5056173;28;20031;-72
2023/06/19 09:08:21;;;;;;;4.05;2.30;;;;;;;;;;5073268;28;20033;-71
2023/06/19 09:11:04;;;;;;;2.38;1.80;;;;;;;;;;5071007;28;20024;-69
2023/06/19 09:13:31;;;;;;;3.58;2.42;;;;;;;;;;5054584;28;20085;-71
2023/06/19 09:16:07;;;;;;;3.75;2.40;;;;;;;;;;5056060;28;20029;-73
2023/06/19 09:18:59;;;;;;;3.30;2.17;;;;;;;;;;5051991;28;20051;-70
2023/06/19 09:21:24;;;;;;;5.13;2.67;;;;;;;;;;5070083;28;20063;-70
2023/06/19 09:23:53;;;;;;;3.67;2.13;;;;;;;;;;5068166;28;20396;-72
2023/06/19 09:26:20;;;;;;;3.45;2.00;;;;;;;;;;5072868;28;20052;-72
2023/06/19 09:28:46;;;;;;;4.45;2.30;;;;;;;;;;5042335;28;20088;-71
2023/06/19 09:31:12;;;;;;;6.88;2.38;;;;;;;;;;5043093;28;20070;-71
2023/06/19 09:33:39;;;;;;;3.42;2.17;;;;;;;;;;5053052;28;20029;-71
2023/06/19 09:36:05;;;;;;;4.18;2.60;;;;;;;;;;5064829;28;20067;-74
2023/06/19 09:38:33;;;;;;;5.07;1.77;;;;;;;;;;5062422;28;20401;-73
2023/06/19 09:41:03;;;;;;;3.08;2.10;;;;;;;;;;5062262;28;20066;-71
2023/06/19 09:43:42;;;;;;;3.60;2.33;;;;;;;;;;5069503;28;20028;-71
2023/06/19 09:46:09;;;;;;;3.22;2.20;;;;;;;;;;5069518;28;20060;-71
2023/06/19 09:48:39;;;;;;;3.97;2.13;;;;;;;;;;5060894;28;20032;-72
2023/06/19 09:51:30;;;;;;;3.08;2.03;;;;;;;;;;5042462;28;20033;-72
2023/06/19 09:53:57;;;;;;;3.83;2.25;;;;;;;;;;5068831;28;20043;-71
2023/06/19 09:56:26;;;;;;;3.60;2.30;;;;;;;;;;5069727;28;20017;-71
2023/06/19 09:58:54;;;;;;;3.72;2.47;;;;;;;;;;5069082;28;20021;-71
2023/06/19 10:01:20;;;;;;;3.15;2.33;;;;;;;;;;5069397;28;20519;-70
2023/06/19 10:03:46;;;;;;;4.05;2.05;;;;;;;;;;5068769;28;20024;-71
2023/06/19 10:06:15;;;;;;;3.33;2.28;;;;;;;;;;5070465;28;20032;-74
2023/06/19 10:08:43;;;;;;;3.13;1.92;;;;;;;;;;5068754;28;20115;-71
2023/06/19 10:11:09;;;;;;;3.78;2.53;;;;;;;;;;5069744;28;20538;-69
2023/06/19 10:13:38;;;;;;;3.40;2.13;;;;;;;;;;5068418;28;20052;-71
2023/06/19 10:16:04;;;;;;;2.65;1.80;;;;;;;;;;5066653;28;20017;-70
2023/06/19 10:18:32;;;;;;;3.63;2.30;;;;;;;;;;5061705;28;20036;-70
2023/06/19 10:20:58;;;;;;;3.95;2.47;;;;;;;;;;5067893;28;20020;-70
2023/06/19 10:23:25;;;;;;;5.45;2.38;;;;;;;;;;5068188;28;20028;-71
2023/06/19 10:25:53;;;;;;;4.90;2.33;;;;;;;;;;5059187;28;20060;-70
2023/06/19 10:28:39;;;;;;;3.90;2.15;;;;;;;;;;5068624;28;20036;-71
2023/06/19 10:31:07;;;;;;;4.47;2.15;;;;;;;;;;5053476;28;20152;-71
2023/06/19 10:33:36;;;;;;;7.53;2.38;;;;;;;;;;5060469;28;20043;-70
2023/06/19 10:36:17;;;;;;;4.43;2.45;;;;;;;;;;5046594;28;20067;-71
2023/06/19 10:38:49;;;;;;;3.13;2.10;;;;;;;;;;5055931;28;20079;-71
2023/06/19 10:41:19;;;;;;;3.50;2.50;;;;;;;;;;5069060;28;20208;-73
2023/06/19 10:44:05;;;;;;;4.47;2.55;;;;;;;;;;5060549;28;20033;-71
2023/06/19 10:46:35;;;;;;;4.57;2.50;;;;;;;;;;5067856;28;20064;-72
2023/06/19 10:49:01;;;;;;;;;;;;;;;;;;5065780;28;20059;-73
2023/06/19 10:51:28;;;;;;;3.03;2.30;;;;;;;;;;5058860;28;19973;-70
2023/06/19 10:53:55;;;;;;;3.67;2.47;;;;;;;;;;5067924;28;20604;-70
2023/06/19 10:56:22;;;;;;;2.85;2.08;;;;;;;;;;5070595;28;20031;-75
2023/06/19 10:58:47;;;;;;;4.35;2.58;;;;;;;;;;5067238;28;20044;-71
2023/06/19 11:01:13;;;;;;;4.07;2.40;;;;;;;;;;5068187;28;20582;-73
2023/06/19 11:03:38;;;;;;;2.92;2.05;;;;;;;;;;5070441;28;20047;-74
2023/06/19 11:06:04;;;;;;;4.28;2.47;;;;;;;;;;5066785;28;20634;-71
2023/06/19 11:08:29;;;;;;;3.47;2.25;;;;;;;;;;5068688;28;20040;-74
2023/06/19 11:10:55;;;;;;;1.80;1.48;;;;;;;;;;5066507;28;20033;-77
2023/06/19 11:13:21;;;;;;;3.75;2.20;;;;;;;;;;5067652;28;20070;-75
2023/06/19 11:15:50;;;;;;;3.67;2.20;;;;;;;;;;5067935;28;20469;-72
2023/06/19 11:18:16;;;;;;;2.75;2.08;;;;;;;;;;5067980;28;20622;-71
2023/06/19 11:20:52;;;;;;;3.28;2.05;;;;;;;;;;5068106;28;20090;-76
2023/06/19 11:23:28;;;;;;;3.13;2.15;;;;;;;;;;5067226;28;20031;-72
2023/06/19 11:25:56;;;;;;;3.67;2.38;;;;;;;;;;5060050;28;20534;-71
2023/06/19 11:28:22;;;;;;;3.38;2.17;;;;;;;;;;5068076;28;20029;-79
2023/06/19 11:30:57;;;;;;;3.72;2.03;;;;;;;;;;5068292;28;20404;-77
2023/06/19 11:33:23;;;;;;;3.58;2.25;;;;;;;;;;5067651;28;20036;-76
2023/06/19 11:35:53;;;;;;;2.92;2.00;;;;;;;;;;5054123;28;20044;-90
2023/06/19 11:38:21;;;;;;;4.22;2.50;;;;;;;;;;5067680;28;20032;-73
2023/06/19 11:40:47;;;;;;;4.15;2.30;;;;;;;;;;5068398;28;20208;-75
2023/06/19 11:43:22;;;;;;;3.22;2.08;;;;;;;;;;5069870;28;20618;-74
2023/06/19 11:45:49;;;;;;;2.95;2.10;;;;;;;;;;5067655;28;20013;-74
2023/06/19 11:48:21;;;;;;;3.25;1.90;;;;;;;;;;5067624;28;20112;-75
2023/06/19 11:50:46;;;;;;;2.97;2.17;;;;;;;;;;5067656;28;20024;-74
2023/06/19 11:53:13;;;;;;;2.90;2.00;;;;;;;;;;5072987;28;20109;-74
2023/06/19 11:55:38;;;;;;;3.30;2.28;;;;;;;;;;5067968;28;20028;-74
2023/06/19 11:58:04;;;;;;;6.75;2.40;;;;;;;;;;5066993;28;20029;-73
2023/06/19 12:00:29;;;;;;;2.78;2.05;;;;;;;;;;5070690;28;20038;-75
2023/06/19 12:02:57;;;;;;;4.10;2.10;;;;;;;;;;5071379;28;20024;-76
2023/06/19 12:05:22;;;;;;;2.38;1.80;;;;;;;;;;5071024;28;20025;-75
2023/06/19 12:07:47;;;;;;;2.90;2.13;;;;;;;;;;5070977;28;20455;-76
2023/06/19 12:10:13;;;;;;;2.80;2.10;;;;;;;;;;5070991;28;20071;-74
2023/06/19 12:12:38;;;;;;;3.72;1.92;;;;;;;;;;5053524;28;20025;-74
2023/06/19 12:15:05;;;;;;;2.63;1.85;;;;;;;;;;5050165;28;20504;-74
2023/06/19 12:17:31;;;;;;;2.45;1.77;;;;;;;;;;5061288;28;20442;-74
2023/06/19 12:19:56;;;;;;;3.25;2.38;;;;;;;;;;5066260;28;20059;-73
2023/06/19 12:22:22;;;;;;;5.05;1.85;;;;;;;;;;5056709;28;20016;-73
2023/06/19 12:24:47;;;;;;;3.42;2.22;;;;;;;;;;5071704;28;20911;-73
2023/06/19 12:27:12;;;;;;;3.00;2.00;;;;;;;;;;5070961;28;20044;-74
2023/06/19 12:29:38;;;;;;;3.08;1.92;;;;;;;;;;5055067;28;20422;-73
2023/06/19 12:32:04;;;;;;;2.55;1.83;;;;;;;;;;5070714;28;20617;-74
2023/06/19 12:34:29;;;;;;;4.10;1.85;;;;;;;;;;5067519;28;20063;-74
2023/06/19 12:36:56;;;;;;;3.20;1.92;;;;;;;;;;5048997;28;20505;-74
2023/06/19 12:39:22;;;;;;;2.63;1.63;;;;;;;;;;5058350;28;20697;-73
2023/06/19 12:41:48;;;;;;;3.22;2.10;;;;;;;;;;5051739;28;20111;-73
2023/06/19 12:44:13;;;;;;;3.47;2.05;;;;;;;;;;5070324;28;20052;-74
2023/06/19 12:46:39;;;;;;;2.95;1.90;;;;;;;;;;5055571;28;20041;-74
2023/06/19 12:49:05;;;;;;;3.75;2.28;;;;;;;;;;5029748;28;20053;-73
2023/06/19 12:51:30;;;;;;;2.63;1.65;;;;;;;;;;5028924;28;20026;-73
2023/06/19 12:53:56;;;;;;;3.17;1.67;;;;;;;;;;5055141;28;20032;-73
2023/06/19 12:56:21;;;;;;;2.55;1.90;;;;;;;;;;5071636;28;20025;-74
2023/06/19 12:58:46;;;;;;;3.00;1.90;;;;;;;;;;5063778;28;20111;-73
2023/06/19 13:01:12;;;;;;;3.13;1.90;;;;;;;;;;5072074;28;20438;-74
2023/06/19 13:03:37;;;;;;;3.08;1.65;;;;;;;;;;5049110;28;20021;-73
2023/06/19 13:06:03;;;;;;;6.97;2.10;;;;;;;;;;5029432;28;20521;-73
2023/06/19 13:08:28;;;;;;;3.25;1.75;;;;;;;;;;5029402;28;20116;-73
2023/06/19 13:10:54;;;;;;;2.35;1.63;;;;;;;;;;5057984;28;20031;-73
2023/06/19 13:13:19;;;;;;;2.78;1.73;;;;;;;;;;5066260;28;20105;-73
2023/06/19 13:15:44;;;;;;;3.92;1.58;;;;;;;;;;5058054;28;20565;-73
2023/06/19 13:18:10;;;;;;;2.70;1.75;;;;;;;;;;5044127;28;20052;-73
2023/06/19 13:20:36;;;;;;;2.15;1.58;;;;;;;;;;5071862;28;20027;-73
2023/06/19 13:23:01;;;;;;;3.63;1.67;;;;;;;;;;5071078;28;20082;-73
2023/06/19 13:25:27;;;;;;;3.58;2.08;;;;;;;;;;5068850;28;20028;-73
2023/06/19 13:27:52;;;;;;;2.20;1.60;;;;;;;;;;5061230;28;20029;-73
2023/06/19 13:30:18;;;;;;;3.30;1.48;;;;;;;;;;5070077;28;20078;-73
2023/06/19 13:32:43;;;;;;;2.35;1.48;;;;;;;;;;5070777;28;20024;-73
2023/06/19 13:35:08;;;;;;;4.90;1.67;;;;;;;;;;5067262;28;20043;-73
2023/06/19 13:37:35;;;;;;;1.88;1.33;;;;;;;;;;5069538;28;20028;-74
2023/06/19 13:40:02;;;;;;;3.08;1.40;;;;;;;;;;5073809;28;20031;-73
2023/06/19 13:42:30;;;;;;;3.38;1.48;;;;;;;;;;5052621;28;20032;-73
2023/06/19 13:44:55;;;;;;;2.42;1.45;;;;;;;;;;5067193;28;20025;-72
2023/06/19 13:47:20;;;;;;;2.28;1.60;;;;;;;;;;5054090;28;20400;-72
2023/06/19 13:49:46;;;;;;;3.20;1.70;;;;;;;;;;5067471;28;20074;-72
2023/06/19 13:52:12;;;;;;;3.22;1.42;;;;;;;;;;5073304;28;20198;-71
2023/06/19 13:54:37;;;;;;;3.75;1.60;;;;;;;;;;5057332;28;20040;-72
2023/06/19 13:57:04;;;;;;;2.22;1.45;;;;;;;;;;5038603;28;20028;-73
2023/06/19 13:59:29;;;;;;;2.92;2.00;;;;;;;;;;5060092;28;20071;-72
2023/06/19 14:01:55;;;;;;;2.53;1.50;;;;;;;;;;5060298;28;20024;-73
2023/06/19 14:04:20;;;;;;;2.08;1.35;;;;;;;;;;5051640;28;20029;-73
2023/06/19 14:06:45;;;;;;;3.38;1.60;;;;;;;;;;5055361;28;20058;-73
2023/06/19 14:09:12;;;;;;;3.33;1.85;;;;;;;;;;5060371;28;20025;-73
2023/06/19 14:11:37;;;;;;;2.05;1.50;;;;;;;;;;5060479;28;20039;-73
2023/06/19 14:14:03;;;;;;;4.90;1.63;;;;;;;;;;5051472;28;20033;-73
2023/06/19 14:16:28;;;;;;;2.22;1.20;;;;;;;;;;5048875;28;20027;-73
2023/06/19 14:18:54;;;;;;;4.25;1.85;;;;;;;;;;5047218;28;20037;-74
2023/06/19 14:21:19;;;;;;;3.22;1.70;;;;;;;;;;5030160;28;20028;-73
2023/06/19 14:23:45;;;;;;;1.98;1.50;;;;;;;;;;5036686;28;20111;-73
2023/06/19 14:26:11;;;;;;;2.42;1.63;;;;;;;;;;5032167;28;20030;-73
2023/06/19 14:28:38;;;;;;;2.67;1.80;;;;;;;;;;5029006;28;20057;-72
2023/06/19 14:31:04;;;;;;;3.38;1.90;;;;;;;;;;5027259;28;20060;-71
2023/06/19 14:33:29;;;;;;;2.38;1.67;;;;;;;;;;5030890;28;20021;-77
2023/06/19 14:35:55;;;;;;;3.30;1.85;;;;;;;;;;5033602;28;20025;-74
2023/06/19 14:38:21;;;;;;;2.45;1.63;;;;;;;;;;5035287;28;20014;-73
2023/06/19 14:40:46;;;;;;;3.13;2.10;;;;;;;;;;5030063;28;20595;-72